Time;durP1;ratioP1;P1;durP2;ratioP2;P2;SDS_P1;SDS_P2;PMS_P1;PMS_P2;Temp;Humidity;BMP_temperature;BMP_pressure;BME280_temperature;BME280_humidity;BME280_pressure;Samples;Min_cycle;Max_cycle;Signal;HPM_P1;HPM_P2
2023/11/07 00:00:34;;;;;;;8.30;4.10;;;;;;;9.69;100.00;100324.38;6022212;29;20288;-68
2023/11/07 00:03:55;;;;;;;4.60;4.03;;;;;;;9.74;100.00;100327.50;6019335;29;20887;-69
2023/11/07 00:07:17;;;;;;;5.03;4.07;;;;;;;9.76;100.00;100332.72;6023033;29;20242;-68
2023/11/07 00:10:38;;;;;;;9.30;5.77;;;;;;;9.77;100.00;100335.28;6022597;29;20329;-69
2023/11/07 00:13:59;;;;;;;4.70;3.60;;;;;;;9.79;100.00;100335.97;6021087;29;20234;-68
2023/11/07 00:17:20;;;;;;;7.97;4.20;;;;;;;9.79;100.00;100349.44;6032614;29;20284;-68
2023/11/07 00:20:41;;;;;;;4.63;3.83;;;;;;;9.78;100.00;100336.13;6021410;29;20633;-68
2023/11/07 00:24:04;;;;;;;6.80;4.23;;;;;;;9.74;100.00;100346.34;6024851;29;20976;-67
2023/11/07 00:27:27;;;;;;;9.27;4.87;;;;;;;9.74;100.00;100332.88;6023059;29;20231;-68
2023/11/07 00:30:49;;;;;;;8.97;4.13;;;;;;;9.67;100.00;100347.91;6040981;29;20242;-67
2023/11/07 00:34:10;;;;;;;5.47;4.30;;;;;;;9.63;100.00;100355.41;6021697;29;20234;-67
2023/11/07 00:37:31;;;;;;;6.97;4.13;;;;;;;9.60;100.00;100354.84;6029454;29;20516;-68
2023/11/07 00:40:53;;;;;;;4.10;3.73;;;;;;;9.57;100.00;100371.28;6022362;29;20246;-68
2023/11/07 00:44:14;;;;;;;5.53;3.83;;;;;;;9.57;100.00;100361.34;6025617;29;20238;-68
2023/11/07 00:47:37;;;;;;;5.97;4.37;;;;;;;9.52;100.00;100366.31;6025617;29;20235;-68
2023/11/07 00:50:59;;;;;;;5.20;4.10;;;;;;;9.47;100.00;100378.50;6015231;29;20250;-69
2023/11/07 00:54:20;;;;;;;5.63;3.60;;;;;;;9.49;100.00;100373.84;6035487;29;20285;-68
2023/11/07 00:57:43;;;;;;;8.10;3.93;;;;;;;9.47;100.00;100367.75;6023528;29;20330;-68
2023/11/07 01:01:05;;;;;;;8.27;4.00;;;;;;;9.42;100.00;100378.06;6019806;29;20278;-67
2023/11/07 01:04:26;;;;;;;4.43;3.80;;;;;;;9.39;100.00;100387.25;6021749;29;20231;-67
2023/11/07 01:07:46;;;;;;;8.63;3.83;;;;;;;9.39;100.00;100378.34;6023956;29;20242;-68
2023/11/07 01:11:07;;;;;;;4.33;3.97;;;;;;;9.41;100.00;100377.22;6035835;29;20231;-68
2023/11/07 01:14:29;;;;;;;4.47;3.90;;;;;;;9.42;100.00;100384.31;6023089;29;20234;-67
2023/11/07 01:17:51;;;;;;;7.20;5.23;;;;;;;9.47;100.00;100392.78;6016643;29;20230;-68
2023/11/07 01:21:11;;;;;;;6.30;3.77;;;;;;;9.52;100.00;100387.00;6037493;29;20849;-68
2023/11/07 01:24:32;;;;;;;8.40;3.93;;;;;;;9.53;100.00;100386.00;6021624;29;20227;-68
2023/11/07 01:27:55;;;;;;;5.90;4.07;;;;;;;9.52;100.00;100389.69;6012746;29;20234;-69
2023/11/07 01:31:16;;;;;;;5.87;3.50;;;;;;;9.52;100.00;100390.53;6033474;29;20243;-68
2023/11/07 01:34:37;;;;;;;6.33;4.37;;;;;;;9.46;100.00;100404.56;6018992;29;20582;-67
2023/11/07 01:37:58;;;;;;;3.20;3.00;;;;;;;9.53;100.00;100397.59;6022844;29;20242;-68
2023/11/07 01:41:19;;;;;;;3.93;3.63;;;;;;;9.54;100.00;100398.47;6022199;29;20242;-68
2023/11/07 01:44:50;;;;;;;11.60;4.67;;;;;;;9.54;100.00;100402.00;6019578;29;20676;-67
2023/11/07 01:48:18;;;;;;;4.70;4.33;;;;;;;9.62;100.00;100412.91;6017109;29;20246;-68
2023/11/07 01:51:39;;;;;;;4.67;3.93;;;;;;;9.61;100.00;100407.69;6016485;29;20584;-68
2023/11/07 01:55:01;;;;;;;6.63;4.40;;;;;;;9.62;100.00;100402.16;6019697;29;20230;-67
2023/11/07 01:58:23;;;;;;;3.83;3.53;;;;;;;9.62;100.00;100412.06;6046067;29;20601;-67
2023/11/07 02:01:47;;;;;;;5.50;5.00;;;;;;;9.65;100.00;100401.88;6026087;29;20317;-68
2023/11/07 02:05:10;;;;;;;9.77;3.67;;;;;;;9.68;100.00;100405.28;6023029;29;20325;-68
2023/11/07 02:12:22;;;;;;;8.80;4.47;;;;;;;9.71;100.00;100408.53;6030325;29;20260;-68
2023/11/07 02:15:43;;;;;;;4.47;3.50;;;;;;;9.70;100.00;100403.28;6026897;29;20245;-68
2023/11/07 02:19:04;;;;;;;4.53;3.57;;;;;;;9.71;100.00;100421.13;6022330;29;20268;-68
2023/11/07 02:22:27;;;;;;;4.13;3.50;;;;;;;9.65;100.00;100412.63;6023209;29;20242;-67
2023/11/07 02:25:52;;;;;;;5.80;3.70;;;;;;;9.63;100.00;100403.84;6021468;29;20246;-68
2023/11/07 02:29:13;;;;;;;4.57;3.47;;;;;;;9.61;100.00;100427.38;6023205;29;20594;-68
2023/11/07 02:32:34;;;;;;;5.30;3.07;;;;;;;9.65;100.00;100412.63;6020616;29;20238;-67
2023/11/07 02:35:55;;;;;;;5.10;4.10;;;;;;;9.63;100.00;100416.47;6023777;29;20257;-68
2023/11/07 02:39:17;;;;;;;6.00;3.27;;;;;;;9.62;100.00;100434.44;6017041;29;20509;-68
2023/11/07 02:42:40;;;;;;;3.90;3.37;;;;;;;9.62;100.00;100422.81;6023042;29;20309;-68
2023/11/07 02:46:00;;;;;;;3.77;3.00;;;;;;;9.61;100.00;100427.38;6030990;29;20655;-68
2023/11/07 02:49:21;;;;;;;5.07;3.40;;;;;;;9.59;100.00;100440.13;6021933;29;20238;-67
2023/11/07 02:52:42;;;;;;;5.23;4.20;;;;;;;9.64;100.00;100431.59;6025796;29;20230;-69
2023/11/07 02:56:04;;;;;;;6.60;4.03;;;;;;;9.60;100.00;100439.13;6024881;29;20235;-68
2023/11/07 02:59:26;;;;;;;6.57;3.53;;;;;;;9.58;100.00;100441.09;6025646;29;20234;-69
2023/11/07 03:02:48;;;;;;;5.10;3.20;;;;;;;9.61;100.00;100439.97;6021338;29;20248;-68
2023/11/07 03:06:09;;;;;;;3.50;3.03;;;;;;;9.56;100.00;100443.06;6034677;29;20257;-68
2023/11/07 03:09:30;;;;;;;3.73;3.33;;;;;;;9.56;100.00;100426.94;6022843;29;20242;-67
2023/11/07 03:12:51;;;;;;;6.43;3.70;;;;;;;9.55;100.00;100432.47;6023506;29;20246;-67
2023/11/07 03:16:13;;;;;;;5.23;4.10;;;;;;;9.58;100.00;100424.94;6037350;29;20239;-68
2023/11/07 03:19:34;;;;;;;4.23;2.60;;;;;;;9.55;100.00;100435.97;6023922;29;20235;-67
2023/11/07 03:22:54;;;;;;;4.50;2.73;;;;;;;9.56;100.00;100439.53;6022315;29;20235;-67
2023/11/07 03:26:15;;;;;;;5.60;3.40;;;;;;;9.52;100.00;100436.28;6021644;29;20238;-67
2023/11/07 03:29:36;;;;;;;13.37;4.97;;;;;;;9.51;100.00;100447.19;6024112;29;20234;-68
2023/11/07 03:32:59;;;;;;;4.80;3.87;;;;;;;9.53;100.00;100439.81;6023420;29;20353;-67
2023/11/07 03:36:20;;;;;;;9.97;3.70;;;;;;;9.51;100.00;100444.50;6022179;29;20372;-67
2023/11/07 03:39:41;;;;;;;4.93;3.50;;;;;;;9.56;100.00;100447.59;6026915;29;20222;-68
2023/11/07 03:43:02;;;;;;;3.67;2.73;;;;;;;9.51;100.00;100445.31;6023860;29;20242;-68
2023/11/07 03:46:23;;;;;;;4.77;3.73;;;;;;;9.50;100.00;100438.25;6020126;29;20238;-68
2023/11/07 03:49:45;;;;;;;3.37;3.07;;;;;;;9.53;100.00;100454.09;6025466;29;21059;-69
2023/11/07 03:53:06;;;;;;;3.80;3.30;;;;;;;9.57;100.00;100452.84;6025809;29;20637;-68
2023/11/07 03:56:27;;;;;;;3.73;3.10;;;;;;;9.54;100.00;100455.81;6026344;29;20234;-67
2023/11/07 03:59:50;;;;;;;5.30;3.97;;;;;;;9.52;100.00;100457.81;6028961;29;20242;-69
2023/11/07 04:03:11;;;;;;;6.77;3.47;;;;;;;9.53;100.00;100461.34;6026017;29;20239;-68
2023/11/07 04:06:33;;;;;;;7.73;4.60;;;;;;;9.55;100.00;100462.88;6028207;29;20234;-68
2023/11/07 04:09:54;;;;;;;3.57;3.27;;;;;;;9.55;100.00;100454.81;6025513;29;20629;-67
2023/11/07 04:13:15;;;;;;;4.87;3.23;;;;;;;9.59;100.00;100466.16;6032738;29;20261;-68
2023/11/07 04:16:36;;;;;;;5.57;3.90;;;;;;;9.61;100.00;100469.56;6019766;29;20254;-67
2023/11/07 04:19:57;;;;;;;9.03;3.60;;;;;;;9.64;100.00;100461.19;6027289;29;20343;-68
2023/11/07 04:23:20;;;;;;;4.27;3.87;;;;;;;9.62;100.00;100465.88;6026221;29;20318;-68
2023/11/07 04:26:41;;;;;;;10.20;4.07;;;;;;;9.62;100.00;100465.88;6025314;29;20239;-68
2023/11/07 04:30:05;;;;;;;4.73;3.43;;;;;;;9.61;100.00;100478.50;6016156;29;20594;-68
2023/11/07 04:33:26;;;;;;;3.90;3.60;;;;;;;9.64;100.00;100485.41;6020276;29;20357;-69
2023/11/07 04:36:47;;;;;;;4.07;3.77;;;;;;;9.62;100.00;100480.19;6027962;29;20246;-68
2023/11/07 04:40:10;;;;;;;8.10;4.73;;;;;;;9.63;100.00;100481.91;6031342;29;20242;-68
2023/11/07 04:43:35;;;;;;;6.47;3.40;;;;;;;9.61;100.00;100483.03;6018464;29;20246;-68
2023/11/07 04:46:57;;;;;;;5.17;4.37;;;;;;;9.60;100.00;100466.03;6025003;29;20235;-67
2023/11/07 04:50:18;;;;;;;7.33;4.30;;;;;;;9.59;100.00;100479.63;6021477;29;20246;-66
2023/11/07 04:53:39;;;;;;;4.30;3.33;;;;;;;9.60;100.00;100484.84;6020375;29;20605;-68
2023/11/07 04:57:01;;;;;;;5.70;5.20;;;;;;;9.60;100.00;100481.31;6040106;29;20234;-68
2023/11/07 05:00:22;;;;;;;6.27;4.27;;;;;;;9.62;100.00;100474.81;6026604;29;20238;-68
2023/11/07 05:03:43;;;;;;;9.63;5.13;;;;;;;9.60;100.00;100471.41;6027334;29;20233;-68
2023/11/07 05:07:04;;;;;;;8.30;4.83;;;;;;;9.56;100.00;100474.50;6024454;29;20305;-68
2023/11/07 05:10:25;;;;;;;8.83;5.33;;;;;;;9.53;100.00;100467.56;6024797;29;20238;-68
2023/11/07 05:13:48;;;;;;;8.70;5.13;;;;;;;9.56;100.00;100472.69;6026446;29;20741;-68
2023/11/07 05:17:09;;;;;;;5.03;4.53;;;;;;;9.53;100.00;100474.81;6028988;29;20782;-68
2023/11/07 05:20:30;;;;;;;5.40;4.60;;;;;;;9.53;100.00;100485.56;6018668;29;20238;-68
2023/11/07 05:23:51;;;;;;;6.73;5.73;;;;;;;9.51;100.00;100477.63;6027958;29;20239;-68
2023/11/07 05:27:13;;;;;;;6.37;4.70;;;;;;;9.52;100.00;100482.03;6028852;29;20270;-67
2023/11/07 05:30:35;;;;;;;6.23;5.10;;;;;;;9.57;100.00;100479.75;6020473;29;20664;-67
2023/11/07 05:33:56;;;;;;;8.07;4.43;;;;;;;9.60;100.00;100482.16;6022057;29;20922;-67
2023/11/07 05:37:17;;;;;;;5.93;4.43;;;;;;;9.62;100.00;100488.25;6036657;29;20547;-68
2023/11/07 05:40:38;;;;;;;6.87;4.23;;;;;;;9.63;100.00;100489.13;6028798;29;20258;-68
2023/11/07 05:43:59;;;;;;;4.90;4.50;;;;;;;9.62;100.00;100487.41;6027296;29;20246;-68
2023/11/07 05:47:22;;;;;;;5.67;4.93;;;;;;;9.64;100.00;100488.97;6026712;29;20247;-67
2023/11/07 05:50:42;;;;;;;5.80;4.50;;;;;;;9.70;100.00;100500.19;6024179;29;20234;-69
2023/11/07 05:54:04;;;;;;;5.53;4.50;;;;;;;9.70;100.00;100494.81;6025108;29;20231;-69
2023/11/07 05:57:28;;;;;;;5.53;4.30;;;;;;;9.61;100.00;100502.72;6020406;29;20499;-70
2023/11/07 06:00:49;;;;;;;16.03;6.20;;;;;;;9.59;100.00;100495.78;6016052;29;20239;-69
2023/11/07 06:04:30;;;;;;;5.40;4.23;;;;;;;9.56;100.00;100499.59;6020714;29;20243;-70
2023/11/07 06:07:55;;;;;;;6.57;4.37;;;;;;;9.49;100.00;100511.06;6026949;29;20237;-70
2023/11/07 06:11:16;;;;;;;7.87;4.87;;;;;;;9.46;100.00;100512.19;6020581;29;20238;-70
2023/11/07 06:14:37;;;;;;;9.97;6.77;;;;;;;9.43;100.00;100509.75;6021478;29;20337;-70
2023/11/07 06:17:58;;;;;;;6.13;4.70;;;;;;;9.41;100.00;100502.78;6029298;29;20242;-69
2023/11/07 06:21:20;;;;;;;6.50;4.53;;;;;;;9.44;100.00;100508.78;6019831;29;20625;-70
2023/11/07 06:24:41;;;;;;;7.10;4.50;;;;;;;9.48;100.00;100499.44;6023243;29;20799;-69
2023/11/07 06:28:03;;;;;;;7.07;3.97;;;;;;;9.52;100.00;100510.75;6027970;29;20238;-69
2023/11/07 06:31:24;;;;;;;5.60;3.77;;;;;;;9.54;100.00;100511.47;6018611;29;20234;-69
2023/11/07 06:34:45;;;;;;;10.10;4.90;;;;;;;9.56;100.00;100517.56;6024552;29;20325;-70
2023/11/07 06:38:08;;;;;;;9.57;4.93;;;;;;;9.60;100.00;100522.53;6022984;29;20239;-70
2023/11/07 06:41:29;;;;;;;6.30;4.47;;;;;;;9.62;100.00;100525.06;6012016;29;20329;-69
2023/11/07 06:44:51;;;;;;;12.97;4.83;;;;;;;9.67;100.00;100528.22;6023325;29;20250;-70
2023/11/07 06:48:12;;;;;;;10.33;5.23;;;;;;;9.63;100.00;100514.19;6023910;29;20345;-69
2023/11/07 06:51:33;;;;;;;8.60;3.97;;;;;;;9.69;100.00;100534.31;6033116;29;20238;-70
2023/11/07 06:54:55;;;;;;;5.37;3.97;;;;;;;9.70;100.00;100538.69;6022698;29;20234;-70
2023/11/07 06:58:15;;;;;;;7.60;4.40;;;;;;;9.73;100.00;100538.44;6031546;29;20380;-70
2023/11/07 07:01:36;;;;;;;5.27;4.67;;;;;;;9.77;100.00;100541.69;6022048;29;20227;-70
2023/11/07 07:04:58;;;;;;;15.20;5.10;;;;;;;9.80;100.00;100544.97;6020854;29;20766;-70
2023/11/07 07:08:18;;;;;;;7.50;4.83;;;;;;;9.86;100.00;100543.53;6016597;29;20243;-70
2023/11/07 07:11:41;;;;;;;5.83;4.60;;;;;;;9.88;100.00;100555.03;6027778;29;20234;-70
2023/11/07 07:15:02;;;;;;;6.27;4.03;;;;;;;9.85;100.00;100548.06;6023435;29;20250;-69
2023/11/07 07:18:25;;;;;;;11.43;4.13;;;;;;;9.86;100.00;100560.56;6022815;29;20246;-70
2023/11/07 07:21:47;;;;;;;7.23;5.00;;;;;;;9.89;100.00;100562.13;6022269;29;20237;-69
2023/11/07 07:25:12;;;;;;;5.50;4.47;;;;;;;9.93;100.00;100564.38;6022386;29;20250;-70
2023/11/07 07:28:37;;;;;;;5.53;3.93;;;;;;;9.95;100.00;100565.09;6019043;29;20238;-69
2023/11/07 07:31:59;;;;;;;6.07;4.87;;;;;;;9.97;100.00;100570.34;6023741;29;20238;-70
2023/11/07 07:35:21;;;;;;;8.27;3.50;;;;;;;9.97;100.00;100581.13;6027570;29;20239;-70
2023/11/07 07:38:42;;;;;;;5.13;4.63;;;;;;;9.99;100.00;100593.44;6017873;29;20246;-70
2023/11/07 07:42:09;;;;;;;4.53;2.93;;;;;;;10.00;100.00;100586.22;6027252;29;20242;-70
2023/11/07 07:45:31;;;;;;;6.97;3.97;;;;;;;9.98;100.00;100577.41;6027425;29;20319;-70
2023/11/07 07:48:55;;;;;;;4.57;4.00;;;;;;;9.99;100.00;100593.44;6020767;29;20239;-70
2023/11/07 07:52:22;;;;;;;6.07;4.33;;;;;;;10.07;100.00;100596.31;6021953;29;20234;-70
2023/11/07 07:55:44;;;;;;;5.03;3.40;;;;;;;10.06;100.00;100597.28;6016936;29;20252;-70
2023/11/07 07:59:05;;;;;;;4.60;3.90;;;;;;;10.09;100.00;100596.16;6019265;29;20279;-70
2023/11/07 08:02:28;;;;;;;7.20;3.83;;;;;;;10.06;100.00;100601.81;6021454;29;20242;-69
2023/11/07 08:05:50;;;;;;;4.13;3.83;;;;;;;10.06;100.00;100610.75;6013988;29;20243;-69
2023/11/07 08:09:13;;;;;;;6.30;3.60;;;;;;;10.14;100.00;100597.47;6019605;29;20246;-70
2023/11/07 08:12:35;;;;;;;4.93;4.20;;;;;;;10.16;100.00;100605.38;6020438;29;20235;-70
2023/11/07 08:15:56;;;;;;;7.77;4.30;;;;;;;10.18;100.00;100616.91;6022249;29;20621;-70
2023/11/07 08:19:20;;;;;;;5.97;4.13;;;;;;;10.17;100.00;100607.09;6023347;29;20325;-70
2023/11/07 08:22:41;;;;;;;4.07;3.67;;;;;;;10.22;100.00;100608.38;6018628;29;20381;-70
2023/11/07 08:26:03;;;;;;;4.70;4.03;;;;;;;10.20;100.00;100609.53;6023646;29;20239;-69
2023/11/07 08:29:24;;;;;;;9.57;4.97;;;;;;;10.25;100.00;100615.34;6022493;29;20262;-71
2023/11/07 08:32:45;;;;;;;13.90;5.87;;;;;;;10.22;100.00;100626.41;6023189;29;20677;-69
2023/11/07 08:36:09;;;;;;;6.93;5.00;;;;;;;10.21;100.00;100624.69;6020173;29;20234;-70
2023/11/07 08:39:30;;;;;;;6.60;4.40;;;;;;;10.26;100.00;100627.84;6014774;29;20633;-70
2023/11/07 08:42:52;;;;;;;5.33;3.97;;;;;;;10.29;100.00;100620.31;6023540;29;20578;-70
2023/11/07 08:46:17;;;;;;;6.30;3.80;;;;;;;10.29;100.00;100609.53;6021903;29;20254;-70
2023/11/07 08:49:38;;;;;;;9.23;3.97;;;;;;;10.26;100.00;100625.97;6026916;29;20525;-69
2023/11/07 08:53:05;;;;;;;6.57;5.93;;;;;;;10.32;100.00;100619.19;6025222;29;20238;-70
2023/11/07 08:56:26;;;;;;;4.40;3.70;;;;;;;10.35;100.00;100614.34;6024664;29;21102;-69
2023/11/07 08:59:46;;;;;;;10.00;4.83;;;;;;;10.35;100.00;100617.03;6025914;29;20250;-70
2023/11/07 09:03:08;;;;;;;6.53;4.23;;;;;;;10.47;100.00;100612.38;6021316;29;20342;-70
2023/11/07 09:06:29;;;;;;;5.13;4.03;;;;;;;10.40;100.00;100630.97;6022114;29;20242;-70
2023/11/07 09:09:52;;;;;;;4.17;3.77;;;;;;;10.43;100.00;100617.19;6020222;29;20609;-70
2023/11/07 09:13:14;;;;;;;5.33;4.33;;;;;;;10.54;100.00;100616.19;6026668;29;20238;-69
2023/11/07 09:16:34;;;;;;;7.63;4.37;;;;;;;10.53;100.00;100621.75;6020668;29;20274;-70
2023/11/07 09:19:57;;;;;;;4.33;3.93;;;;;;;10.57;100.00;100626.72;6028751;29;20235;-70
2023/11/07 09:23:17;;;;;;;4.40;4.00;;;;;;;10.59;100.00;100623.84;6027484;29;20234;-69
2023/11/07 09:26:40;;;;;;;3.57;3.27;;;;;;;10.73;100.00;100628.81;6022904;29;20242;-70
2023/11/07 09:30:01;;;;;;;3.33;3.07;;;;;;;10.76;100.00;100628.53;6025350;29;20238;-70
2023/11/07 09:33:22;;;;;;;3.67;3.37;;;;;;;10.80;100.00;100636.19;6021355;29;20265;-70
2023/11/07 09:36:43;;;;;;;5.10;4.60;;;;;;;10.82;100.00;100634.22;6018890;29;20862;-70
2023/11/07 09:40:09;;;;;;;4.57;3.60;;;;;;;10.88;100.00;100633.63;6016050;29;20238;-70
2023/11/07 09:43:31;;;;;;;6.30;3.33;;;;;;;10.83;100.00;100657.47;6024448;29;20315;-70
2023/11/07 09:46:53;;;;;;;12.73;3.57;;;;;;;10.85;100.00;100660.00;6006462;29;20360;-70
2023/11/07 09:50:16;;;;;;;5.03;4.20;;;;;;;10.98;100.00;100636.31;6026770;29;20223;-70
2023/11/07 09:53:39;;;;;;;5.33;3.70;;;;;;;11.06;100.00;100645.38;6017479;29;20230;-69
2023/11/07 09:57:06;;;;;;;6.47;4.07;;;;;;;11.19;100.00;100643.22;6023003;29;20262;-69
2023/11/07 10:00:31;;;;;;;5.00;3.27;;;;;;;11.27;100.00;100648.75;6021867;29;20235;-70
2023/11/07 10:03:52;;;;;;;3.33;2.90;;;;;;;11.29;100.00;100656.69;6021006;29;20254;-70
2023/11/07 10:07:13;;;;;;;4.00;2.90;;;;;;;11.05;100.00;100665.28;6022517;29;20234;-69
2023/11/07 10:10:34;;;;;;;3.53;2.43;;;;;;;11.11;100.00;100663.81;6028147;29;20238;-70
2023/11/07 10:14:03;;;;;;;8.80;4.17;;;;;;;11.03;100.00;100678.06;6021493;29;20648;-70
2023/11/07 10:17:25;;;;;;;3.93;3.63;;;;;;;11.05;100.00;100673.38;6024696;29;20238;-70
2023/11/07 10:20:50;;;;;;;4.50;3.63;;;;;;;11.03;100.00;100677.19;6027748;29;20245;-69
2023/11/07 10:24:12;;;;;;;5.17;2.40;;;;;;;11.01;100.00;100674.63;6018938;29;21904;-70
2023/11/07 10:27:33;;;;;;;9.47;3.17;;;;;;;11.17;100.00;100674.03;6024638;29;20262;-70
2023/11/07 10:30:56;;;;;;;6.50;3.23;;;;;;;11.22;100.00;100661.81;6024045;29;20234;-69
2023/11/07 10:34:19;;;;;;;7.40;4.33;;;;;;;11.39;100.00;100667.47;6021680;29;20254;-71
2023/11/07 10:37:40;;;;;;;3.10;2.80;;;;;;;11.66;100.00;100651.31;6025591;29;20326;-70
2023/11/07 10:41:02;;;;;;;5.40;3.37;;;;;;;12.10;100.00;100655.94;6022192;29;20238;-71
2023/11/07 10:44:25;;;;;;;3.50;2.40;;;;;;;11.75;100.00;100674.75;6024853;29;20242;-69
2023/11/07 10:47:46;;;;;;;3.20;2.87;;;;;;;12.02;100.00;100664.81;6021913;29;20231;-69
2023/11/07 10:51:09;;;;;;;3.20;1.97;;;;;;;12.13;100.00;100662.88;6024219;29;20246;-69
2023/11/07 10:54:31;;;;;;;3.57;3.27;;;;;;;12.82;100.00;100664.81;6013429;29;20566;-70
2023/11/07 10:57:58;;;;;;;3.20;2.37;;;;;;;12.65;100.00;100665.66;6025389;29;20787;-69
2023/11/07 11:01:20;;;;;;;4.10;2.63;;;;;;;12.01;100.00;100652.28;6024703;29;20234;-69
2023/11/07 11:04:42;;;;;;;3.27;2.73;;;;;;;11.94;100.00;100664.72;6022755;29;20242;-70
2023/11/07 11:08:06;;;;;;;2.43;2.20;;;;;;;12.97;100.00;100664.25;6010522;29;20238;-69
2023/11/07 11:11:30;;;;;;;3.77;2.63;;;;;;;12.22;100.00;100675.50;6022503;29;20562;-69
2023/11/07 11:14:52;;;;;;;2.50;1.97;;;;;;;12.23;100.00;100672.63;6023324;29;20553;-69
2023/11/07 11:18:20;;;;;;;3.07;2.03;;;;;;;12.39;100.00;100659.28;6023883;29;20242;-69
2023/11/07 11:21:48;;;;;;;4.97;2.37;;;;;;;12.03;100.00;100663.81;6019550;29;20234;-69
2023/11/07 11:25:24;;;;;;;2.33;1.63;;;;;;;11.83;100.00;100662.19;6023446;29;20249;-70
2023/11/07 11:28:44;;;;;;;4.27;2.47;;;;;;;11.72;100.00;100664.25;6015812;29;20508;-69
2023/11/07 11:32:24;;;;;;;2.63;2.23;;;;;;;11.68;100.00;100660.97;6020891;29;20527;-69
2023/11/07 11:35:45;;;;;;;2.00;1.57;;;;;;;11.62;100.00;100658.00;6020319;29;20321;-70
2023/11/07 11:39:43;;;;;;;2.73;1.60;;;;;;;11.73;100.00;100644.34;6020575;29;20313;-70
2023/11/07 11:43:06;;;;;;;2.93;1.97;;;;;;;11.74;100.00;100646.03;6021819;29;20239;-70
2023/11/07 11:46:37;;;;;;;1.97;1.87;;;;;;;12.05;100.00;100644.75;6023885;29;20234;-70
2023/11/07 11:50:17;;;;;;;2.57;2.03;;;;;;;11.96;100.00;100645.63;6030147;29;20328;-70
2023/11/07 11:53:39;;;;;;;1.80;1.70;;;;;;;11.88;100.00;100649.09;6020944;29;20727;-70
2023/11/07 11:57:04;;;;;;;3.73;1.87;;;;;;;11.83;100.00;100646.00;6011238;29;20830;-69
2023/11/07 12:00:38;;;;;;;3.00;2.10;;;;;;;11.87;100.00;100643.81;6020600;29;20322;-69
2023/11/07 12:03:58;;;;;;;3.67;1.77;;;;;;;11.89;100.00;100655.38;6020153;29;20261;-69
2023/11/07 12:07:22;;;;;;;4.40;2.20;;;;;;;11.85;100.00;100632.31;6021180;29;20245;-68
2023/11/07 12:10:55;;;;;;;2.93;2.27;;;;;;;11.94;100.00;100632.28;6025228;29;20234;-70
2023/11/07 12:14:17;;;;;;;2.87;1.83;;;;;;;13.02;100.00;100632.13;6025355;29;20254;-70
2023/11/07 12:17:46;;;;;;;1.97;1.33;;;;;;;16.17;100.00;100617.97;6029280;29;20617;-69
2023/11/07 12:21:07;;;;;;;1.30;1.20;;;;;;;15.29;100.00;100628.09;6029436;29;20309;-69
2023/11/07 12:24:27;;;;;;;2.73;1.40;;;;;;;13.47;100.00;100638.25;6023354;29;20600;-70
2023/11/07 12:28:02;;;;;;;3.83;1.83;;;;;;;12.39;100.00;100637.66;6021632;29;20601;-68
2023/11/07 12:31:23;;;;;;;1.40;1.27;;;;;;;12.26;100.00;100650.72;6028723;29;20768;-68
2023/11/07 12:34:46;;;;;;;1.90;1.53;;;;;;;12.10;100.00;100645.13;6027205;29;20597;-69
2023/11/07 12:38:09;;;;;;;10.23;2.83;;;;;;;12.61;100.00;100637.22;6030421;29;20234;-69
2023/11/07 12:41:32;;;;;;;4.57;1.80;;;;;;;12.93;100.00;100643.91;6026208;29;20617;-69
2023/11/07 12:44:53;;;;;;;2.07;1.73;;;;;;;12.80;100.00;100637.06;6024404;29;20234;-69
2023/11/07 12:48:24;;;;;;;2.00;1.47;;;;;;;12.89;100.00;100637.97;6031779;29;20238;-69
2023/11/07 12:51:47;;;;;;;4.77;2.20;;;;;;;12.76;100.00;100642.94;6026938;29;20226;-69
2023/11/07 12:55:20;;;;;;;2.37;1.93;;;;;;;12.53;100.00;100636.28;6025445;29;20231;-70
2023/11/07 12:58:41;;;;;;;2.77;1.60;;;;;;;12.21;100.00;100639.50;6022027;29;20230;-70
2023/11/07 13:02:03;;;;;;;1.60;1.50;;;;;;;12.19;100.00;100627.16;6023271;29;20234;-70
2023/11/07 13:05:24;;;;;;;2.20;1.60;;;;;;;12.02;100.00;100618.00;6026383;29;20620;-70
2023/11/07 13:08:47;;;;;;;1.10;1.10;;;;;;;11.87;100.00;100633.03;6022433;29;20227;-70
2023/11/07 13:12:08;;;;;;;4.37;1.30;;;;;;;11.82;100.00;100636.19;6023571;29;20239;-69
2023/11/07 13:15:29;;;;;;;1.60;1.50;;;;;;;11.85;100.00;100626.91;6023713;29;20226;-69
2023/11/07 13:18:52;;;;;;;2.37;1.80;;;;;;;11.95;100.00;100638.56;6021979;29;20243;-69
2023/11/07 13:22:17;;;;;;;1.63;1.53;;;;;;;11.96;100.00;100637.53;6021020;29;20226;-68
2023/11/07 13:25:39;;;;;;;1.80;1.47;;;;;;;11.98;100.00;100628.28;6023567;29;20234;-69
2023/11/07 13:29:00;;;;;;;1.30;1.20;;;;;;;11.84;100.00;100642.31;6025758;29;20261;-70
2023/11/07 13:32:21;;;;;;;2.13;1.57;;;;;;;11.81;100.00;100636.31;6025468;29;20234;-69
2023/11/07 13:35:47;;;;;;;2.03;1.73;;;;;;;11.63;100.00;100643.50;6023735;29;20328;-69
2023/11/07 13:39:14;;;;;;;4.03;1.50;;;;;;;11.35;100.00;100650.69;6025279;29;20234;-70
2023/11/07 13:42:36;;;;;;;2.07;1.47;;;;;;;11.17;100.00;100645.22;6026085;29;20242;-69
2023/11/07 13:45:58;;;;;;;1.90;1.50;;;;;;;11.17;100.00;100644.34;6023858;29;20246;-69
2023/11/07 13:49:20;;;;;;;2.27;1.07;;;;;;;11.39;100.00;100643.19;6026668;29;20242;-70
2023/11/07 13:52:41;;;;;;;1.63;1.53;;;;;;;11.39;100.00;100641.31;6026988;29;20257;-69
2023/11/07 13:56:03;;;;;;;2.57;2.03;;;;;;;11.63;100.00;100620.06;6025570;29;20262;-71
2023/11/07 13:59:26;;;;;;;2.27;1.90;;;;;;;11.46;100.00;100637.03;6024779;29;20238;-70
2023/11/07 14:02:47;;;;;;;3.63;2.00;;;;;;;11.39;100.00;100641.31;6019745;29;20532;-69
2023/11/07 14:06:08;;;;;;;1.70;1.60;;;;;;;11.37;100.00;100637.06;6028215;29;21121;-69
2023/11/07 14:09:29;;;;;;;1.93;1.47;;;;;;;11.28;100.00;100641.50;6022076;29;20471;-68
2023/11/07 14:12:52;;;;;;;1.87;1.50;;;;;;;11.31;100.00;100630.41;6024762;29;20269;-70
2023/11/07 14:16:14;;;;;;;6.13;2.13;;;;;;;11.27;100.00;100634.38;6025183;29;20222;-70
2023/11/07 14:19:35;;;;;;;2.63;1.53;;;;;;;11.21;100.00;100637.66;6025016;29;20243;-69
2023/11/07 14:22:56;;;;;;;1.53;1.43;;;;;;;11.18;100.00;100646.91;6023587;29;20258;-70
2023/11/07 14:26:17;;;;;;;5.53;1.97;;;;;;;11.09;100.00;100653.19;6026149;29;20234;-68
2023/11/07 14:29:39;;;;;;;1.63;1.53;;;;;;;11.13;100.00;100653.75;6027317;29;20238;-69
2023/11/07 14:33:01;;;;;;;2.33;1.30;;;;;;;11.04;100.00;100658.16;6029984;29;20706;-69
2023/11/07 14:36:22;;;;;;;0.77;0.77;;;;;;;10.99;100.00;100655.03;6034439;29;20235;-69
2023/11/07 14:39:43;;;;;;;4.33;2.07;;;;;;;10.99;100.00;100660.41;6024301;29;20508;-69
2023/11/07 14:43:10;;;;;;;1.43;1.20;;;;;;;10.92;100.00;100667.41;6019857;29;20500;-70
2023/11/07 14:46:32;;;;;;;2.53;1.07;;;;;;;10.83;100.00;100665.56;6022271;29;20717;-70
2023/11/07 14:49:54;;;;;;;2.07;1.17;;;;;;;10.71;100.00;100663.16;6019622;29;20531;-70
2023/11/07 14:53:18;;;;;;;1.53;1.10;;;;;;;10.68;100.00;100664.28;6016606;29;20239;-70
2023/11/07 14:56:39;;;;;;;3.23;1.23;;;;;;;10.67;100.00;100664.44;6023403;29;20234;-70
2023/11/07 15:00:01;;;;;;;2.73;1.00;;;;;;;10.56;100.00;100667.25;6018678;29;20246;-70
2023/11/07 15:03:22;;;;;;;1.23;1.00;;;;;;;10.60;100.00;100666.00;6025601;29;20328;-69
2023/11/07 15:06:44;;;;;;;0.77;0.67;;;;;;;10.55;100.00;100679.91;6022550;29;20333;-69
2023/11/07 15:10:06;;;;;;;0.90;0.90;;;;;;;10.54;100.00;100670.09;6024704;29;20238;-69
2023/11/07 15:13:29;;;;;;;1.20;1.10;;;;;;;10.56;100.00;100662.72;6016044;29;20239;-69
2023/11/07 15:16:52;;;;;;;1.33;0.80;;;;;;;10.54;100.00;100664.72;6018542;29;20247;-70
2023/11/07 15:20:13;;;;;;;0.83;0.83;;;;;;;10.53;100.00;100673.81;6023302;29;20660;-70
2023/11/07 15:23:35;;;;;;;3.50;1.57;;;;;;;10.57;100.00;100677.06;6019893;29;20242;-69
2023/11/07 15:26:57;;;;;;;1.10;1.00;;;;;;;10.50;100.00;100671.38;6016688;29;20242;-69
2023/11/07 15:30:18;;;;;;;1.53;1.37;;;;;;;10.51;100.00;100675.78;6028250;29;20649;-69
2023/11/07 15:33:39;;;;;;;1.90;1.40;;;;;;;10.55;100.00;100673.66;6020560;29;20234;-69
2023/11/07 15:37:00;;;;;;;4.33;1.70;;;;;;;10.59;100.00;100667.00;6026727;29;20247;-70
2023/11/07 15:40:22;;;;;;;1.80;1.70;;;;;;;10.52;100.00;100669.41;6021970;29;20286;-69